Latest METARs, TAFs and NOTAMs for ETSI


---------------------------------------------------------------------------
	(OBSERVATIONS)
ETSI 261547Z VRB03KT 9999 VCTS FEW028CB BKN200 23/19 Q1019 BLU+BLU+
    TEMPO WHT=
ETSI 261520Z VRB03KT 9999 FEW028CB BKN200 23/19 Q1019 BLU+BLU+
    TEMPO WHT=
ETSI 261320Z 19004KT 9999 FEW028CB SCT120 BKN160 21/19 Q1019
    RETS BLU BLU+ TEMPO WHT=
---------------------------------------------------------------------------
	(FC)
TAF ETSI 261315Z 2614/2623 27005KT 9999 NSW SCT030 SCT120
     TEMPO 2614/2623 33008KT 5000 SHRA SCT020 BKN030 BKN200
     PROB30 2614/2620 VRB15G30KT 1500 TSRA BKN007 BKN020CB=
---------------------------------------------------------------------------
	(TERMINAL AREA FORECAST)
ETSI 261315Z 2614/2623 27005KT    9999 NSW  SCT030 SCT120
    TEMPO  2614/2623 33008KT    5000 SHRA SCT020 BKN030 BKN200
    PROB30 2614/2620 VRB15G30KT 1500 TSRA BKN007 BKN020CB=
---------------------------------------------------------------------------
	(NOTAMS)


ETSI P3574/16 AD ETSI: RWY25L CABLE NO.1 OUT OF SERVICE. 03 JUN
    08:24 2016 UNTIL 02 SEP 12:00 2016. CREATED: 03 JUN 08:31
    2016

ETSI P3575/16 AD ETSI: RWY25R CABLE NO.2 OUT OF SERVICE. 03 JUN
    08:29 2016 UNTIL 02 SEP 12:00 2016. CREATED: 03 JUN 08:34
    2016

ETSI P3576/16 AD ETSI: TACAN APCH RWY07R SUSPENDED. 03 JUN 08:41
    2016 UNTIL 02 SEP 12:00 2016. CREATED: 03 JUN 08:43 2016

ETSI P3577/16 AD ETSI: LIMITED RADAR COVERAGE BELOW 5000FT MSL.
    DETAILED INFORMATION BY INGO RADAR. 03 JUN 08:42 2016 UNTIL
    02 SEP 12:00 2016. CREATED: 03 JUN 08:44 2016

ETSI P3578/16 AD ETSI: NO SRA POSSIBLE. 03 JUN 08:43 2016 UNTIL
    02 SEP 12:00 2016. CREATED: 03 JUN 08:44 2016

ETSI P3579/16 AD ETSI: PAR RWY25R/07L OUT OF SERVICE. 03 JUN
    08:44 2016 UNTIL 02 SEP 12:00 2016. CREATED: 03 JUN 08:47
    2016

ETSI P3580/16 AD ETSI: PAR RWY25L/07R OUT OF SERVICE. 03 JUN
    08:45 2016 UNTIL 02 SEP 12:00 2016. CREATED: 03 JUN 08:48
    2016

ETSI P4285/16 AD ETSI: PAPI 25R RIGHT SIDE 3 LIGHTS ONLY. 29
    JUN 10:46 2016 UNTIL 23 SEP 11:00 2016. CREATED: 29 JUN 10:57
    2016

ETSI P4338/16 AD MIL OPENING HOURS CHANGED TO: MON-THU 0700-1400
    FRI 0700-1100. 30 JUN 13:19 2016 UNTIL 30 SEP 12:00 2016.
    CREATED: 30 JUN 13:27 2016

ETSI P4562/16 TWY 'S' CLOSED BETWEEN 'D' AND 'A3' INTERSECTION.
    13 JUL 07:32 2016 UNTIL 31 AUG 14:00 2016. CREATED: 13 JUL
    07:43 2016

ETSI P4695/16 AERODROME CLOSED (EXCEPT FOR CIVIL AIR TRAFFIC
    WITH PPR). 29 JUL 07:00 2016 UNTIL 29 JUL 12:00 2016. CREATED:
    21 JUL 09:26 2016

ETSI P4718/16 AERODROME CLOSED EXCEPT CIVIL AIR TRAFFIC WITH
    PPR MON 1300-1500 TUE 1300-1500 WED 0700-1000. 25 JUL 13:00
    2016 UNTIL 27 JUL 10:00 2016. CREATED: 22 JUL 06:37 2016

ETSI P4721/16 AERODROME CLOSED EXCEPT CIVIL AIR TRAFFIC WITH
    PPR AUG. 01, 05, 08, 12, 19, 22, 26, 29 SEPT. 05. 01 AUG
    07:00 2016 UNTIL 05 SEP 15:00 2016. CREATED: 22 JUL 07:08
    2016

ETSI P4771/16 DUE TO FIRE FIGHTING EXERCISE ACTIVE RWY MAY BE
    CLOSED FOR UP TO ONE HOUR EXPECT DELAY. 28 JUL 11:00 2016
    UNTIL 28 JUL 14:00 2016. CREATED: 25 JUL 10:51 2016

ETSI P4772/16 DELAY HAVE TO BE EXPECTED DUE TO DEMO PRACTICE
    FLIGHTS. DAILY 1130-1300, 26 JUL 11:30 2016 UNTIL 27 JUL
    13:00 2016. CREATED: 25 JUL 11:17 2016

ETSI U0023/16 AD ETSI INGOLSTADT/MANCHING GEMIL FLIP VAD JET
    AND EUROFIGHTER FLIP ARR/DEP JET RWY 07R/25L AND ARR/DEP
    JET RWY 07L/25R CHARTS SUSPENDED. SEE MIL AIP SUP 03/16 FOR
    DETAILS. 31 MAR 00:01 2016 UNTIL PERM. CREATED: 11 MAR 10:40
    2016

---------------------------------------------------------------------------